Strona główna
METAR-TAF:

METAR-TAF

Lotnisko :

Praga, Czechy

Szerokość geograficzna: 50-12-59N, Długość geograficzna: 014-23-42E, wysokość: 280 m

Aktualna obserwacja pogody

Raport powstał 1 godzina i 0 minut temu, godzina 09:00 UTC
Wiatr 8 kt od północno-północny zachód, zmienny między zachód i wschodnio-północny wschód
Temperatura 23°C
Wilgotność 53%
Ciśnienie 1021 hPa
Widzialność 10 km lub więcej
Brak chmur poniżej 1500 m i brak chmur cumulonimbus

METAR: LKVO 180900Z 33008KT 280V060 CAVOK 23/13 Q1021

czas: 12:00 (10:00 UTC)


TAF: brakujący

Obserwacja i prognoza pogody dla ponad 4000 lotnisk (raport METAR i TAF).

Dostępne stacje oznaczono żółtymi i czerwonymi punktami na mapie.

Najedź kursorem aby zobaczyć nazwę stacji.

Kliknij aby zobaczyć obserwacje i prognozy pogody.

Aby zmienić mapę: kliknij na zielony przycisk z czarnym krzyżykiem, aby powiększyć; na zielony przycisk z myślnikiem, aby pomniejszyć; na zielone strzałki, aby przejść do map sąsiednich.


METAR-TAF: